<?xml version="1.0" encoding="UTF-8"?>
<gpx xmlns="http://www.topografix.com/GPX/1/1" xmlns:xsi="http://www.w3.org/2001/XMLSchema-instance" version="1.1" xsi:schemaLocation="http://www.topografix.com/GPX/1/1 http://www.topografix.com/GPX/1/1/gpx.xsd">
  <metadata>
    <name>St. Catherine's Triathlon - Aquabike Super Sprint</name>
  </metadata>
  <trk>
    <name>St. Catherine's Triathlon - Aquabike Super Sprint</name>
    <trkseg>
      <trkpt lat="49.224438" lon="-2.01994">
        <ele>2.36673</ele>
        <time>2026-05-17T07:23:00.000Z</time>
      </trkpt>
      <trkpt lat="49.224411" lon="-2.019983">
        <ele>2.366724</ele>
        <time>2026-05-17T07:23:00.000Z</time>
      </trkpt>
      <trkpt lat="49.224287" lon="-2.020252">
        <ele>2.366722</ele>
        <time>2026-05-17T07:23:02.000Z</time>
      </trkpt>
      <trkpt lat="49.22389" lon="-2.021209">
        <ele>2.635418</ele>
        <time>2026-05-17T07:23:10.000Z</time>
      </trkpt>
      <trkpt lat="49.223786" lon="-2.02257">
        <ele>5.141852</ele>
        <time>2026-05-17T07:23:20.000Z</time>
      </trkpt>
      <trkpt lat="49.223729" lon="-2.023202">
        <ele>6.305118</ele>
        <time>2026-05-17T07:23:25.000Z</time>
      </trkpt>
      <trkpt lat="49.223647" lon="-2.023736">
        <ele>7.316797</ele>
        <time>2026-05-17T07:23:29.000Z</time>
      </trkpt>
      <trkpt lat="49.223459" lon="-2.02406">
        <ele>7.487311</ele>
        <time>2026-05-17T07:23:32.000Z</time>
      </trkpt>
      <trkpt lat="49.223238" lon="-2.024327">
        <ele>7.574568</ele>
        <time>2026-05-17T07:23:35.000Z</time>
      </trkpt>
      <trkpt lat="49.222963" lon="-2.02458">
        <ele>7.676375</ele>
        <time>2026-05-17T07:23:39.000Z</time>
      </trkpt>
      <trkpt lat="49.222645" lon="-2.024896">
        <ele>7.799202</ele>
        <time>2026-05-17T07:23:43.000Z</time>
      </trkpt>
      <trkpt lat="49.22249" lon="-2.025114">
        <ele>7.862518</ele>
        <time>2026-05-17T07:23:45.000Z</time>
      </trkpt>
      <trkpt lat="49.222017" lon="-2.026132">
        <ele>8.428105</ele>
        <time>2026-05-17T07:23:54.000Z</time>
      </trkpt>
      <trkpt lat="49.221803" lon="-2.026543">
        <ele>8.763807</ele>
        <time>2026-05-17T07:23:58.000Z</time>
      </trkpt>
      <trkpt lat="49.22167" lon="-2.026713">
        <ele>8.937479</ele>
        <time>2026-05-17T07:24:00.000Z</time>
      </trkpt>
      <trkpt lat="49.221459" lon="-2.026876">
        <ele>9.170453</ele>
        <time>2026-05-17T07:24:03.000Z</time>
      </trkpt>
      <trkpt lat="49.221147" lon="-2.026977">
        <ele>9.471967</ele>
        <time>2026-05-17T07:24:07.000Z</time>
      </trkpt>
      <trkpt lat="49.221048" lon="-2.026982">
        <ele>9.57862</ele>
        <time>2026-05-17T07:24:08.000Z</time>
      </trkpt>
      <trkpt lat="49.220468" lon="-2.026729">
        <ele>9.292444</ele>
        <time>2026-05-17T07:24:15.000Z</time>
      </trkpt>
      <trkpt lat="49.220199" lon="-2.026843">
        <ele>9.008781</ele>
        <time>2026-05-17T07:24:18.000Z</time>
      </trkpt>
      <trkpt lat="49.219996" lon="-2.02703">
        <ele>8.75661</ele>
        <time>2026-05-17T07:24:21.000Z</time>
      </trkpt>
      <trkpt lat="49.219836" lon="-2.027328">
        <ele>8.497038</ele>
        <time>2026-05-17T07:24:24.000Z</time>
      </trkpt>
      <trkpt lat="49.219671" lon="-2.027757">
        <ele>8.167843</ele>
        <time>2026-05-17T07:24:28.000Z</time>
      </trkpt>
      <trkpt lat="49.219532" lon="-2.028028">
        <ele>7.944458</ele>
        <time>2026-05-17T07:24:31.000Z</time>
      </trkpt>
      <trkpt lat="49.219079" lon="-2.028588">
        <ele>7.513262</ele>
        <time>2026-05-17T07:24:37.000Z</time>
      </trkpt>
      <trkpt lat="49.218985" lon="-2.028908">
        <ele>7.342634</ele>
        <time>2026-05-17T07:24:40.000Z</time>
      </trkpt>
      <trkpt lat="49.21885" lon="-2.02948">
        <ele>7.061211</ele>
        <time>2026-05-17T07:24:44.000Z</time>
      </trkpt>
      <trkpt lat="49.218687" lon="-2.029737">
        <ele>6.887644</ele>
        <time>2026-05-17T07:24:47.000Z</time>
      </trkpt>
      <trkpt lat="49.218519" lon="-2.029888">
        <ele>6.748305</ele>
        <time>2026-05-17T07:24:49.000Z</time>
      </trkpt>
      <trkpt lat="49.218029" lon="-2.030261">
        <ele>7.961042</ele>
        <time>2026-05-17T07:24:55.000Z</time>
      </trkpt>
      <trkpt lat="49.2176" lon="-2.030994">
        <ele>10.496463</ele>
        <time>2026-05-17T07:25:02.000Z</time>
      </trkpt>
      <trkpt lat="49.217502" lon="-2.03137">
        <ele>11.577188</ele>
        <time>2026-05-17T07:25:05.000Z</time>
      </trkpt>
      <trkpt lat="49.216676" lon="-2.030799">
        <ele>14.628483</ele>
        <time>2026-05-17T07:25:15.000Z</time>
      </trkpt>
      <trkpt lat="49.215106" lon="-2.029504">
        <ele>18.619697</ele>
        <time>2026-05-17T07:25:35.000Z</time>
      </trkpt>
      <trkpt lat="49.214098" lon="-2.028053">
        <ele>20.07725</ele>
        <time>2026-05-17T07:25:50.000Z</time>
      </trkpt>
      <trkpt lat="49.21404" lon="-2.027987">
        <ele>20.141248</ele>
        <time>2026-05-17T07:25:51.000Z</time>
      </trkpt>
      <trkpt lat="49.213684" lon="-2.027635">
        <ele>20.44056</ele>
        <time>2026-05-17T07:25:56.000Z</time>
      </trkpt>
      <trkpt lat="49.213536" lon="-2.027566">
        <ele>20.560253</ele>
        <time>2026-05-17T07:25:58.000Z</time>
      </trkpt>
      <trkpt lat="49.213145" lon="-2.027473">
        <ele>20.847383</ele>
        <time>2026-05-17T07:26:02.000Z</time>
      </trkpt>
      <trkpt lat="49.212529" lon="-2.027385">
        <ele>21.290255</ele>
        <time>2026-05-17T07:26:09.000Z</time>
      </trkpt>
      <trkpt lat="49.212328" lon="-2.027266">
        <ele>21.419913</ele>
        <time>2026-05-17T07:26:11.000Z</time>
      </trkpt>
      <trkpt lat="49.212207" lon="-2.027139">
        <ele>21.269226</ele>
        <time>2026-05-17T07:26:13.000Z</time>
      </trkpt>
      <trkpt lat="49.211896" lon="-2.026641">
        <ele>20.739493</ele>
        <time>2026-05-17T07:26:18.000Z</time>
      </trkpt>
      <trkpt lat="49.2117" lon="-2.02632">
        <ele>20.418259</ele>
        <time>2026-05-17T07:26:21.000Z</time>
      </trkpt>
      <trkpt lat="49.211515" lon="-2.026141">
        <ele>20.171215</ele>
        <time>2026-05-17T07:26:23.000Z</time>
      </trkpt>
      <trkpt lat="49.211298" lon="-2.026027">
        <ele>19.906755</ele>
        <time>2026-05-17T07:26:26.000Z</time>
      </trkpt>
      <trkpt lat="49.211094" lon="-2.025953">
        <ele>19.669327</ele>
        <time>2026-05-17T07:26:28.000Z</time>
      </trkpt>
      <trkpt lat="49.210229" lon="-2.025892">
        <ele>19.773981</ele>
        <time>2026-05-17T07:26:38.000Z</time>
      </trkpt>
      <trkpt lat="49.210209" lon="-2.025876">
        <ele>19.788599</ele>
        <time>2026-05-17T07:26:38.000Z</time>
      </trkpt>
      <trkpt lat="49.209978" lon="-2.025769">
        <ele>19.944159</ele>
        <time>2026-05-17T07:26:41.000Z</time>
      </trkpt>
      <trkpt lat="49.209632" lon="-2.025499">
        <ele>20.191048</ele>
        <time>2026-05-17T07:26:45.000Z</time>
      </trkpt>
      <trkpt lat="49.209598" lon="-2.025482">
        <ele>20.210634</ele>
        <time>2026-05-17T07:26:45.000Z</time>
      </trkpt>
      <trkpt lat="49.209352" lon="-2.025222">
        <ele>20.403707</ele>
        <time>2026-05-17T07:26:48.000Z</time>
      </trkpt>
      <trkpt lat="49.209145" lon="-2.024934">
        <ele>20.340711</ele>
        <time>2026-05-17T07:26:51.000Z</time>
      </trkpt>
      <trkpt lat="49.209094" lon="-2.024833">
        <ele>20.0991</ele>
        <time>2026-05-17T07:26:52.000Z</time>
      </trkpt>
      <trkpt lat="49.208931" lon="-2.024502">
        <ele>19.439598</ele>
        <time>2026-05-17T07:26:55.000Z</time>
      </trkpt>
      <trkpt lat="49.208601" lon="-2.022864">
        <ele>16.593394</ele>
        <time>2026-05-17T07:27:07.000Z</time>
      </trkpt>
      <trkpt lat="49.208377" lon="-2.022023">
        <ele>14.49571</ele>
        <time>2026-05-17T07:27:14.000Z</time>
      </trkpt>
      <trkpt lat="49.208227" lon="-2.021702">
        <ele>13.368275</ele>
        <time>2026-05-17T07:27:17.000Z</time>
      </trkpt>
      <trkpt lat="49.208164" lon="-2.021622">
        <ele>13.057719</ele>
        <time>2026-05-17T07:27:18.000Z</time>
      </trkpt>
      <trkpt lat="49.20803" lon="-2.02156">
        <ele>12.47367</ele>
        <time>2026-05-17T07:27:20.000Z</time>
      </trkpt>
      <trkpt lat="49.207859" lon="-2.021565">
        <ele>11.729978</ele>
        <time>2026-05-17T07:27:22.000Z</time>
      </trkpt>
      <trkpt lat="49.207645" lon="-2.021657">
        <ele>10.746986</ele>
        <time>2026-05-17T07:27:24.000Z</time>
      </trkpt>
      <trkpt lat="49.207131" lon="-2.021982">
        <ele>8.403799</ele>
        <time>2026-05-17T07:27:30.000Z</time>
      </trkpt>
      <trkpt lat="49.206913" lon="-2.022293">
        <ele>8.038911</ele>
        <time>2026-05-17T07:27:33.000Z</time>
      </trkpt>
      <trkpt lat="49.206694" lon="-2.022596">
        <ele>7.77396</ele>
        <time>2026-05-17T07:27:36.000Z</time>
      </trkpt>
      <trkpt lat="49.206596" lon="-2.022674">
        <ele>7.676834</ele>
        <time>2026-05-17T07:27:37.000Z</time>
      </trkpt>
      <trkpt lat="49.206341" lon="-2.022781">
        <ele>7.437499</ele>
        <time>2026-05-17T07:27:40.000Z</time>
      </trkpt>
      <trkpt lat="49.205824" lon="-2.022786">
        <ele>6.9771</ele>
        <time>2026-05-17T07:27:46.000Z</time>
      </trkpt>
      <trkpt lat="49.205275" lon="-2.022654">
        <ele>8.152852</ele>
        <time>2026-05-17T07:27:52.000Z</time>
      </trkpt>
      <trkpt lat="49.205132" lon="-2.022609">
        <ele>8.99923</ele>
        <time>2026-05-17T07:27:54.000Z</time>
      </trkpt>
      <trkpt lat="49.204541" lon="-2.02244">
        <ele>13.026095</ele>
        <time>2026-05-17T07:28:01.000Z</time>
      </trkpt>
      <trkpt lat="49.204031" lon="-2.022219">
        <ele>16.419364</ele>
        <time>2026-05-17T07:28:07.000Z</time>
      </trkpt>
      <trkpt lat="49.203916" lon="-2.02215">
        <ele>17.212913</ele>
        <time>2026-05-17T07:28:08.000Z</time>
      </trkpt>
      <trkpt lat="49.203653" lon="-2.021821">
        <ele>18.818989</ele>
        <time>2026-05-17T07:28:12.000Z</time>
      </trkpt>
      <trkpt lat="49.203417" lon="-2.021329">
        <ele>19.818685</ele>
        <time>2026-05-17T07:28:16.000Z</time>
      </trkpt>
      <trkpt lat="49.203409" lon="-2.021279">
        <ele>19.910599</ele>
        <time>2026-05-17T07:28:16.000Z</time>
      </trkpt>
      <trkpt lat="49.203404" lon="-2.021151">
        <ele>20.105328</ele>
        <time>2026-05-17T07:28:17.000Z</time>
      </trkpt>
      <trkpt lat="49.203464" lon="-2.02055">
        <ele>21.107895</ele>
        <time>2026-05-17T07:28:21.000Z</time>
      </trkpt>
      <trkpt lat="49.20352" lon="-2.019923">
        <ele>22.160575</ele>
        <time>2026-05-17T07:28:26.000Z</time>
      </trkpt>
      <trkpt lat="49.203513" lon="-2.019728">
        <ele>22.467893</ele>
        <time>2026-05-17T07:28:27.000Z</time>
      </trkpt>
      <trkpt lat="49.203468" lon="-2.019529">
        <ele>22.813447</ele>
        <time>2026-05-17T07:28:29.000Z</time>
      </trkpt>
      <trkpt lat="49.20326" lon="-2.019301">
        <ele>22.42648</ele>
        <time>2026-05-17T07:28:32.000Z</time>
      </trkpt>
      <trkpt lat="49.202955" lon="-2.018997">
        <ele>21.578291</ele>
        <time>2026-05-17T07:28:36.000Z</time>
      </trkpt>
      <trkpt lat="49.202767" lon="-2.018726">
        <ele>20.942807</ele>
        <time>2026-05-17T07:28:39.000Z</time>
      </trkpt>
      <trkpt lat="49.202664" lon="-2.018601">
        <ele>20.616975</ele>
        <time>2026-05-17T07:28:40.000Z</time>
      </trkpt>
      <trkpt lat="49.202542" lon="-2.018477">
        <ele>20.29062</ele>
        <time>2026-05-17T07:28:42.000Z</time>
      </trkpt>
      <trkpt lat="49.202493" lon="-2.018417">
        <ele>20.15209</ele>
        <time>2026-05-17T07:28:43.000Z</time>
      </trkpt>
      <trkpt lat="49.202329" lon="-2.018336">
        <ele>19.739854</ele>
        <time>2026-05-17T07:28:45.000Z</time>
      </trkpt>
      <trkpt lat="49.202065" lon="-2.018306">
        <ele>19.105917</ele>
        <time>2026-05-17T07:28:48.000Z</time>
      </trkpt>
      <trkpt lat="49.201887" lon="-2.018396">
        <ele>18.669217</ele>
        <time>2026-05-17T07:28:50.000Z</time>
      </trkpt>
      <trkpt lat="49.201627" lon="-2.018689">
        <ele>18.748246</ele>
        <time>2026-05-17T07:28:54.000Z</time>
      </trkpt>
      <trkpt lat="49.201055" lon="-2.019106">
        <ele>18.966998</ele>
        <time>2026-05-17T07:29:01.000Z</time>
      </trkpt>
      <trkpt lat="49.200859" lon="-2.019276">
        <ele>19.043166</ele>
        <time>2026-05-17T07:29:04.000Z</time>
      </trkpt>
      <trkpt lat="49.200728" lon="-2.019451">
        <ele>19.104367</ele>
        <time>2026-05-17T07:29:06.000Z</time>
      </trkpt>
      <trkpt lat="49.200606" lon="-2.019646">
        <ele>19.165419</ele>
        <time>2026-05-17T07:29:08.000Z</time>
      </trkpt>
      <trkpt lat="49.200582" lon="-2.019788">
        <ele>19.195447</ele>
        <time>2026-05-17T07:29:09.000Z</time>
      </trkpt>
      <trkpt lat="49.200531" lon="-2.020812">
        <ele>17.17645</ele>
        <time>2026-05-17T07:29:16.000Z</time>
      </trkpt>
      <trkpt lat="49.200524" lon="-2.021055">
        <ele>16.498258</ele>
        <time>2026-05-17T07:29:18.000Z</time>
      </trkpt>
      <trkpt lat="49.200151" lon="-2.022393">
        <ele>12.528744</ele>
        <time>2026-05-17T07:29:29.000Z</time>
      </trkpt>
      <trkpt lat="49.200034" lon="-2.022907">
        <ele>11.173405</ele>
        <time>2026-05-17T07:29:33.000Z</time>
      </trkpt>
      <trkpt lat="49.199808" lon="-2.023536">
        <ele>9.687337</ele>
        <time>2026-05-17T07:29:38.000Z</time>
      </trkpt>
      <trkpt lat="49.199753" lon="-2.023652">
        <ele>9.37846</ele>
        <time>2026-05-17T07:29:39.000Z</time>
      </trkpt>
      <trkpt lat="49.199654" lon="-2.023678">
        <ele>9.067908</ele>
        <time>2026-05-17T07:29:40.000Z</time>
      </trkpt>
      <trkpt lat="49.199743" lon="-2.023417">
        <ele>8.471995</ele>
        <time>2026-05-17T07:29:42.000Z</time>
      </trkpt>
      <trkpt lat="49.199932" lon="-2.022661">
        <ele>6.779667</ele>
        <time>2026-05-17T07:29:48.000Z</time>
      </trkpt>
      <trkpt lat="49.199958" lon="-2.022477">
        <ele>6.380142</ele>
        <time>2026-05-17T07:29:49.000Z</time>
      </trkpt>
      <trkpt lat="49.20002" lon="-2.021859">
        <ele>5.5643</ele>
        <time>2026-05-17T07:29:54.000Z</time>
      </trkpt>
      <trkpt lat="49.200013" lon="-2.02145">
        <ele>5.187019</ele>
        <time>2026-05-17T07:29:57.000Z</time>
      </trkpt>
      <trkpt lat="49.199963" lon="-2.021317">
        <ele>5.046302</ele>
        <time>2026-05-17T07:29:58.000Z</time>
      </trkpt>
      <trkpt lat="49.199926" lon="-2.021266">
        <ele>4.97791</ele>
        <time>2026-05-17T07:29:59.000Z</time>
      </trkpt>
      <trkpt lat="49.199895" lon="-2.021259">
        <ele>4.930916</ele>
        <time>2026-05-17T07:29:59.000Z</time>
      </trkpt>
      <trkpt lat="49.199878" lon="-2.021276">
        <ele>4.909959</ele>
        <time>2026-05-17T07:29:59.000Z</time>
      </trkpt>
      <trkpt lat="49.199865" lon="-2.021314">
        <ele>4.85609</ele>
        <time>2026-05-17T07:29:59.000Z</time>
      </trkpt>
      <trkpt lat="49.199823" lon="-2.021593">
        <ele>4.598426</ele>
        <time>2026-05-17T07:30:01.000Z</time>
      </trkpt>
      <trkpt lat="49.199787" lon="-2.021929">
        <ele>4.279142</ele>
        <time>2026-05-17T07:30:03.000Z</time>
      </trkpt>
      <trkpt lat="49.199744" lon="-2.022287">
        <ele>3.937143</ele>
        <time>2026-05-17T07:30:06.000Z</time>
      </trkpt>
      <trkpt lat="49.199651" lon="-2.02282">
        <ele>3.42329</ele>
        <time>2026-05-17T07:30:10.000Z</time>
      </trkpt>
      <trkpt lat="49.199531" lon="-2.023216">
        <ele>3.357045</ele>
        <time>2026-05-17T07:30:13.000Z</time>
      </trkpt>
      <trkpt lat="49.199352" lon="-2.023596">
        <ele>3.303859</ele>
        <time>2026-05-17T07:30:16.000Z</time>
      </trkpt>
      <trkpt lat="49.198968" lon="-2.024445">
        <ele>3.185647</ele>
        <time>2026-05-17T07:30:24.000Z</time>
      </trkpt>
      <trkpt lat="49.19876" lon="-2.025145">
        <ele>3.096984</ele>
        <time>2026-05-17T07:30:30.000Z</time>
      </trkpt>
      <trkpt lat="49.198544" lon="-2.026535">
        <ele>2.257845</ele>
        <time>2026-05-17T07:30:40.000Z</time>
      </trkpt>
      <trkpt lat="49.198458" lon="-2.026906">
        <ele>2.010848</ele>
        <time>2026-05-17T07:30:43.000Z</time>
      </trkpt>
      <trkpt lat="49.198288" lon="-2.027426">
        <ele>1.654309</ele>
        <time>2026-05-17T07:30:47.000Z</time>
      </trkpt>
      <trkpt lat="49.197644" lon="-2.028701">
        <ele>2.793277</ele>
        <time>2026-05-17T07:30:59.000Z</time>
      </trkpt>
      <trkpt lat="49.19753" lon="-2.028919">
        <ele>3.14127</ele>
        <time>2026-05-17T07:31:01.000Z</time>
      </trkpt>
      <trkpt lat="49.197028" lon="-2.029908">
        <ele>4.601955</ele>
        <time>2026-05-17T07:31:10.000Z</time>
      </trkpt>
      <trkpt lat="49.196721" lon="-2.030646">
        <ele>5.21833</ele>
        <time>2026-05-17T07:31:16.000Z</time>
      </trkpt>
      <trkpt lat="49.196452" lon="-2.031013">
        <ele>5.598527</ele>
        <time>2026-05-17T07:31:20.000Z</time>
      </trkpt>
      <trkpt lat="49.19645" lon="-2.031016">
        <ele>5.603936</ele>
        <time>2026-05-17T07:31:20.000Z</time>
      </trkpt>
      <trkpt lat="49.196233" lon="-2.031257">
        <ele>5.882887</ele>
        <time>2026-05-17T07:31:23.000Z</time>
      </trkpt>
      <trkpt lat="49.195875" lon="-2.031783">
        <ele>6.39348</ele>
        <time>2026-05-17T07:31:29.000Z</time>
      </trkpt>
      <trkpt lat="49.195356" lon="-2.032637">
        <ele>6.466926</ele>
        <time>2026-05-17T07:31:37.000Z</time>
      </trkpt>
      <trkpt lat="49.195891" lon="-2.031795">
        <ele>6.398011</ele>
        <time>2026-05-17T07:31:46.000Z</time>
      </trkpt>
      <trkpt lat="49.19623" lon="-2.031252">
        <ele>6.196746</ele>
        <time>2026-05-17T07:31:51.000Z</time>
      </trkpt>
      <trkpt lat="49.196452" lon="-2.031017">
        <ele>5.776689</ele>
        <time>2026-05-17T07:31:54.000Z</time>
      </trkpt>
      <trkpt lat="49.196441" lon="-2.031012">
        <ele>5.768548</ele>
        <time>2026-05-17T07:31:54.000Z</time>
      </trkpt>
      <trkpt lat="49.196715" lon="-2.03064">
        <ele>5.195993</ele>
        <time>2026-05-17T07:31:58.000Z</time>
      </trkpt>
      <trkpt lat="49.197043" lon="-2.02992">
        <ele>4.293367</ele>
        <time>2026-05-17T07:32:04.000Z</time>
      </trkpt>
      <trkpt lat="49.19753" lon="-2.028929">
        <ele>3.115332</ele>
        <time>2026-05-17T07:32:13.000Z</time>
      </trkpt>
      <trkpt lat="49.197639" lon="-2.02869">
        <ele>2.869159</ele>
        <time>2026-05-17T07:32:15.000Z</time>
      </trkpt>
      <trkpt lat="49.19807" lon="-2.027847">
        <ele>1.966348</ele>
        <time>2026-05-17T07:32:23.000Z</time>
      </trkpt>
      <trkpt lat="49.198278" lon="-2.027416">
        <ele>1.526961</ele>
        <time>2026-05-17T07:32:27.000Z</time>
      </trkpt>
      <trkpt lat="49.198457" lon="-2.026909">
        <ele>1.435412</ele>
        <time>2026-05-17T07:32:31.000Z</time>
      </trkpt>
      <trkpt lat="49.198544" lon="-2.026535">
        <ele>1.799252</ele>
        <time>2026-05-17T07:32:34.000Z</time>
      </trkpt>
      <trkpt lat="49.198749" lon="-2.025149">
        <ele>3.081426</ele>
        <time>2026-05-17T07:32:44.000Z</time>
      </trkpt>
      <trkpt lat="49.198965" lon="-2.024456">
        <ele>3.720692</ele>
        <time>2026-05-17T07:32:50.000Z</time>
      </trkpt>
      <trkpt lat="49.199369" lon="-2.023604">
        <ele>3.581312</ele>
        <time>2026-05-17T07:32:58.000Z</time>
      </trkpt>
      <trkpt lat="49.199516" lon="-2.023216">
        <ele>3.518599</ele>
        <time>2026-05-17T07:33:01.000Z</time>
      </trkpt>
      <trkpt lat="49.19965" lon="-2.02283">
        <ele>3.460613</ele>
        <time>2026-05-17T07:33:04.000Z</time>
      </trkpt>
      <trkpt lat="49.199743" lon="-2.022286">
        <ele>3.386277</ele>
        <time>2026-05-17T07:33:08.000Z</time>
      </trkpt>
      <trkpt lat="49.199789" lon="-2.021935">
        <ele>3.604441</ele>
        <time>2026-05-17T07:33:11.000Z</time>
      </trkpt>
      <trkpt lat="49.199825" lon="-2.021591">
        <ele>4.114184</ele>
        <time>2026-05-17T07:33:14.000Z</time>
      </trkpt>
      <trkpt lat="49.199866" lon="-2.02131">
        <ele>4.525568</ele>
        <time>2026-05-17T07:33:16.000Z</time>
      </trkpt>
      <trkpt lat="49.199901" lon="-2.021258">
        <ele>4.645018</ele>
        <time>2026-05-17T07:33:17.000Z</time>
      </trkpt>
      <trkpt lat="49.199938" lon="-2.021256">
        <ele>4.720049</ele>
        <time>2026-05-17T07:33:17.000Z</time>
      </trkpt>
      <trkpt lat="49.199973" lon="-2.021312">
        <ele>4.829233</ele>
        <time>2026-05-17T07:33:18.000Z</time>
      </trkpt>
      <trkpt lat="49.2" lon="-2.021441">
        <ele>5.053915</ele>
        <time>2026-05-17T07:33:19.000Z</time>
      </trkpt>
      <trkpt lat="49.200018" lon="-2.021846">
        <ele>5.656254</ele>
        <time>2026-05-17T07:33:22.000Z</time>
      </trkpt>
      <trkpt lat="49.199963" lon="-2.022475">
        <ele>6.590447</ele>
        <time>2026-05-17T07:33:27.000Z</time>
      </trkpt>
      <trkpt lat="49.199928" lon="-2.022655">
        <ele>6.875712</ele>
        <time>2026-05-17T07:33:28.000Z</time>
      </trkpt>
      <trkpt lat="49.199743" lon="-2.023425">
        <ele>8.468769</ele>
        <time>2026-05-17T07:33:34.000Z</time>
      </trkpt>
      <trkpt lat="49.199653" lon="-2.023691">
        <ele>9.150311</ele>
        <time>2026-05-17T07:33:36.000Z</time>
      </trkpt>
      <trkpt lat="49.199763" lon="-2.023658">
        <ele>9.505451</ele>
        <time>2026-05-17T07:33:37.000Z</time>
      </trkpt>
      <trkpt lat="49.199812" lon="-2.023548">
        <ele>9.8587</ele>
        <time>2026-05-17T07:33:38.000Z</time>
      </trkpt>
      <trkpt lat="49.200022" lon="-2.022904">
        <ele>11.558235</ele>
        <time>2026-05-17T07:33:43.000Z</time>
      </trkpt>
      <trkpt lat="49.200155" lon="-2.022383">
        <ele>12.87264</ele>
        <time>2026-05-17T07:33:47.000Z</time>
      </trkpt>
      <trkpt lat="49.200521" lon="-2.021062">
        <ele>16.046966</ele>
        <time>2026-05-17T07:33:57.000Z</time>
      </trkpt>
      <trkpt lat="49.200522" lon="-2.020815">
        <ele>16.56814</ele>
        <time>2026-05-17T07:33:59.000Z</time>
      </trkpt>
      <trkpt lat="49.200584" lon="-2.019783">
        <ele>18.741446</ele>
        <time>2026-05-17T07:34:07.000Z</time>
      </trkpt>
      <trkpt lat="49.200606" lon="-2.019652">
        <ele>19.024954</ele>
        <time>2026-05-17T07:34:08.000Z</time>
      </trkpt>
      <trkpt lat="49.200724" lon="-2.019438">
        <ele>19.601594</ele>
        <time>2026-05-17T07:34:10.000Z</time>
      </trkpt>
      <trkpt lat="49.20087" lon="-2.019282">
        <ele>19.751122</ele>
        <time>2026-05-17T07:34:12.000Z</time>
      </trkpt>
      <trkpt lat="49.201063" lon="-2.019094">
        <ele>19.642947</ele>
        <time>2026-05-17T07:34:15.000Z</time>
      </trkpt>
      <trkpt lat="49.201633" lon="-2.018684">
        <ele>19.332329</ele>
        <time>2026-05-17T07:34:22.000Z</time>
      </trkpt>
      <trkpt lat="49.201891" lon="-2.018385">
        <ele>19.173191</ele>
        <time>2026-05-17T07:34:26.000Z</time>
      </trkpt>
      <trkpt lat="49.202073" lon="-2.018295">
        <ele>19.08416</ele>
        <time>2026-05-17T07:34:28.000Z</time>
      </trkpt>
      <trkpt lat="49.202335" lon="-2.018324">
        <ele>18.954936</ele>
        <time>2026-05-17T07:34:31.000Z</time>
      </trkpt>
      <trkpt lat="49.202492" lon="-2.018423">
        <ele>19.275249</ele>
        <time>2026-05-17T07:34:33.000Z</time>
      </trkpt>
      <trkpt lat="49.202553" lon="-2.01848">
        <ele>19.432584</ele>
        <time>2026-05-17T07:34:34.000Z</time>
      </trkpt>
      <trkpt lat="49.20265" lon="-2.018589">
        <ele>19.80329</ele>
        <time>2026-05-17T07:34:35.000Z</time>
      </trkpt>
      <trkpt lat="49.20276" lon="-2.018733">
        <ele>20.173387</ele>
        <time>2026-05-17T07:34:37.000Z</time>
      </trkpt>
      <trkpt lat="49.202954" lon="-2.018999">
        <ele>20.89523</ele>
        <time>2026-05-17T07:34:40.000Z</time>
      </trkpt>
      <trkpt lat="49.203254" lon="-2.019289">
        <ele>21.858676</ele>
        <time>2026-05-17T07:34:44.000Z</time>
      </trkpt>
      <trkpt lat="49.203458" lon="-2.019545">
        <ele>22.559196</ele>
        <time>2026-05-17T07:34:47.000Z</time>
      </trkpt>
      <trkpt lat="49.203515" lon="-2.019731">
        <ele>22.931488</ele>
        <time>2026-05-17T07:34:48.000Z</time>
      </trkpt>
      <trkpt lat="49.203519" lon="-2.019914">
        <ele>23.262584</ele>
        <time>2026-05-17T07:34:49.000Z</time>
      </trkpt>
      <trkpt lat="49.20346" lon="-2.020551">
        <ele>22.64142</ele>
        <time>2026-05-17T07:34:54.000Z</time>
      </trkpt>
      <trkpt lat="49.20339" lon="-2.021159">
        <ele>20.508717</ele>
        <time>2026-05-17T07:34:58.000Z</time>
      </trkpt>
      <trkpt lat="49.203415" lon="-2.021267">
        <ele>20.094493</ele>
        <time>2026-05-17T07:34:59.000Z</time>
      </trkpt>
      <trkpt lat="49.203428" lon="-2.021325">
        <ele>19.898965</ele>
        <time>2026-05-17T07:34:59.000Z</time>
      </trkpt>
      <trkpt lat="49.203661" lon="-2.021813">
        <ele>17.772409</ele>
        <time>2026-05-17T07:35:03.000Z</time>
      </trkpt>
      <trkpt lat="49.203932" lon="-2.022144">
        <ele>15.91728</ele>
        <time>2026-05-17T07:35:07.000Z</time>
      </trkpt>
      <trkpt lat="49.204039" lon="-2.022227">
        <ele>15.266645</ele>
        <time>2026-05-17T07:35:08.000Z</time>
      </trkpt>
      <trkpt lat="49.20454" lon="-2.022441">
        <ele>12.774213</ele>
        <time>2026-05-17T07:35:14.000Z</time>
      </trkpt>
      <trkpt lat="49.20515" lon="-2.022622">
        <ele>10.035848</ele>
        <time>2026-05-17T07:35:21.000Z</time>
      </trkpt>
      <trkpt lat="49.205272" lon="-2.022645">
        <ele>9.460276</ele>
        <time>2026-05-17T07:35:22.000Z</time>
      </trkpt>
      <trkpt lat="49.20583" lon="-2.02278">
        <ele>6.936154</ele>
        <time>2026-05-17T07:35:28.000Z</time>
      </trkpt>
      <trkpt lat="49.206348" lon="-2.022778">
        <ele>6.923685</ele>
        <time>2026-05-17T07:35:34.000Z</time>
      </trkpt>
      <trkpt lat="49.206599" lon="-2.022686">
        <ele>7.479853</ele>
        <time>2026-05-17T07:35:37.000Z</time>
      </trkpt>
      <trkpt lat="49.206686" lon="-2.022605">
        <ele>7.705532</ele>
        <time>2026-05-17T07:35:38.000Z</time>
      </trkpt>
      <trkpt lat="49.206909" lon="-2.022288">
        <ele>8.32123</ele>
        <time>2026-05-17T07:35:41.000Z</time>
      </trkpt>
      <trkpt lat="49.207139" lon="-2.021982">
        <ele>8.960193</ele>
        <time>2026-05-17T07:35:44.000Z</time>
      </trkpt>
      <trkpt lat="49.207635" lon="-2.021646">
        <ele>10.275179</ele>
        <time>2026-05-17T07:35:50.000Z</time>
      </trkpt>
      <trkpt lat="49.207857" lon="-2.02156">
        <ele>11.32481</ele>
        <time>2026-05-17T07:35:53.000Z</time>
      </trkpt>
      <trkpt lat="49.208044" lon="-2.021555">
        <ele>12.118913</ele>
        <time>2026-05-17T07:35:55.000Z</time>
      </trkpt>
      <trkpt lat="49.208155" lon="-2.021617">
        <ele>12.742547</ele>
        <time>2026-05-17T07:35:56.000Z</time>
      </trkpt>
      <trkpt lat="49.208227" lon="-2.021684">
        <ele>13.074171</ele>
        <time>2026-05-17T07:35:57.000Z</time>
      </trkpt>
      <trkpt lat="49.208377" lon="-2.022024">
        <ele>14.278038</ele>
        <time>2026-05-17T07:36:00.000Z</time>
      </trkpt>
      <trkpt lat="49.208598" lon="-2.022855">
        <ele>16.970846</ele>
        <time>2026-05-17T07:36:07.000Z</time>
      </trkpt>
      <trkpt lat="49.208943" lon="-2.02449">
        <ele>19.127937</ele>
        <time>2026-05-17T07:36:19.000Z</time>
      </trkpt>
      <trkpt lat="49.20909" lon="-2.02482">
        <ele>19.416503</ele>
        <time>2026-05-17T07:36:22.000Z</time>
      </trkpt>
      <trkpt lat="49.209146" lon="-2.024931">
        <ele>19.522223</ele>
        <time>2026-05-17T07:36:23.000Z</time>
      </trkpt>
      <trkpt lat="49.209343" lon="-2.025215">
        <ele>19.824725</ele>
        <time>2026-05-17T07:36:26.000Z</time>
      </trkpt>
      <trkpt lat="49.209599" lon="-2.025492">
        <ele>20.160178</ele>
        <time>2026-05-17T07:36:29.000Z</time>
      </trkpt>
      <trkpt lat="49.209632" lon="-2.025507">
        <ele>20.162536</ele>
        <time>2026-05-17T07:36:29.000Z</time>
      </trkpt>
      <trkpt lat="49.209981" lon="-2.02577">
        <ele>20.0959</ele>
        <time>2026-05-17T07:36:33.000Z</time>
      </trkpt>
      <trkpt lat="49.210209" lon="-2.025872">
        <ele>20.053922</ele>
        <time>2026-05-17T07:36:36.000Z</time>
      </trkpt>
      <trkpt lat="49.210236" lon="-2.025876">
        <ele>20.049963</ele>
        <time>2026-05-17T07:36:36.000Z</time>
      </trkpt>
      <trkpt lat="49.211094" lon="-2.025953">
        <ele>19.901583</ele>
        <time>2026-05-17T07:36:46.000Z</time>
      </trkpt>
      <trkpt lat="49.211304" lon="-2.026031">
        <ele>19.865828</ele>
        <time>2026-05-17T07:36:48.000Z</time>
      </trkpt>
      <trkpt lat="49.211522" lon="-2.026146">
        <ele>20.017325</ele>
        <time>2026-05-17T07:36:51.000Z</time>
      </trkpt>
      <trkpt lat="49.211701" lon="-2.026333">
        <ele>20.207233</ele>
        <time>2026-05-17T07:36:53.000Z</time>
      </trkpt>
      <trkpt lat="49.211891" lon="-2.02663">
        <ele>20.454187</ele>
        <time>2026-05-17T07:36:56.000Z</time>
      </trkpt>
      <trkpt lat="49.212212" lon="-2.027155">
        <ele>20.861428</ele>
        <time>2026-05-17T07:37:01.000Z</time>
      </trkpt>
      <trkpt lat="49.212317" lon="-2.027257">
        <ele>20.977266</ele>
        <time>2026-05-17T07:37:02.000Z</time>
      </trkpt>
      <trkpt lat="49.212521" lon="-2.027391">
        <ele>21.173139</ele>
        <time>2026-05-17T07:37:04.000Z</time>
      </trkpt>
      <trkpt lat="49.213145" lon="-2.02748">
        <ele>21.131061</ele>
        <time>2026-05-17T07:37:11.000Z</time>
      </trkpt>
      <trkpt lat="49.213543" lon="-2.027561">
        <ele>20.743037</ele>
        <time>2026-05-17T07:37:15.000Z</time>
      </trkpt>
      <trkpt lat="49.213692" lon="-2.027637">
        <ele>20.581251</ele>
        <time>2026-05-17T07:37:17.000Z</time>
      </trkpt>
      <trkpt lat="49.214039" lon="-2.027984">
        <ele>20.178334</ele>
        <time>2026-05-17T07:37:22.000Z</time>
      </trkpt>
      <trkpt lat="49.21409" lon="-2.028047">
        <ele>20.118893</ele>
        <time>2026-05-17T07:37:23.000Z</time>
      </trkpt>
      <trkpt lat="49.2151" lon="-2.029506">
        <ele>18.44753</ele>
        <time>2026-05-17T07:37:38.000Z</time>
      </trkpt>
      <trkpt lat="49.216675" lon="-2.0308">
        <ele>14.371327</ele>
        <time>2026-05-17T07:37:58.000Z</time>
      </trkpt>
      <trkpt lat="49.217496" lon="-2.031361">
        <ele>11.520367</ele>
        <time>2026-05-17T07:38:08.000Z</time>
      </trkpt>
      <trkpt lat="49.217593" lon="-2.030978">
        <ele>10.662336</ele>
        <time>2026-05-17T07:38:11.000Z</time>
      </trkpt>
      <trkpt lat="49.218027" lon="-2.030276">
        <ele>8.649367</ele>
        <time>2026-05-17T07:38:18.000Z</time>
      </trkpt>
      <trkpt lat="49.218526" lon="-2.029889">
        <ele>6.918763</ele>
        <time>2026-05-17T07:38:24.000Z</time>
      </trkpt>
      <trkpt lat="49.218697" lon="-2.029727">
        <ele>6.310791</ele>
        <time>2026-05-17T07:38:26.000Z</time>
      </trkpt>
      <trkpt lat="49.218866" lon="-2.029466">
        <ele>6.18868</ele>
        <time>2026-05-17T07:38:29.000Z</time>
      </trkpt>
      <trkpt lat="49.218973" lon="-2.028901">
        <ele>6.827408</ele>
        <time>2026-05-17T07:38:33.000Z</time>
      </trkpt>
      <trkpt lat="49.219086" lon="-2.028586">
        <ele>7.214676</ele>
        <time>2026-05-17T07:38:36.000Z</time>
      </trkpt>
      <trkpt lat="49.219534" lon="-2.028015">
        <ele>8.161976</ele>
        <time>2026-05-17T07:38:42.000Z</time>
      </trkpt>
      <trkpt lat="49.21967" lon="-2.027758">
        <ele>8.51969</ele>
        <time>2026-05-17T07:38:44.000Z</time>
      </trkpt>
      <trkpt lat="49.219825" lon="-2.027331">
        <ele>8.933955</ele>
        <time>2026-05-17T07:38:48.000Z</time>
      </trkpt>
      <trkpt lat="49.219993" lon="-2.027022">
        <ele>8.986697</ele>
        <time>2026-05-17T07:38:51.000Z</time>
      </trkpt>
      <trkpt lat="49.220207" lon="-2.026847">
        <ele>9.037946</ele>
        <time>2026-05-17T07:38:54.000Z</time>
      </trkpt>
      <trkpt lat="49.220472" lon="-2.026723">
        <ele>9.095599</ele>
        <time>2026-05-17T07:38:57.000Z</time>
      </trkpt>
      <trkpt lat="49.221045" lon="-2.026981">
        <ele>9.219763</ele>
        <time>2026-05-17T07:39:04.000Z</time>
      </trkpt>
      <trkpt lat="49.221148" lon="-2.026975">
        <ele>9.24241</ele>
        <time>2026-05-17T07:39:05.000Z</time>
      </trkpt>
      <trkpt lat="49.221449" lon="-2.026877">
        <ele>9.250787</ele>
        <time>2026-05-17T07:39:08.000Z</time>
      </trkpt>
      <trkpt lat="49.221673" lon="-2.026711">
        <ele>9.116865</ele>
        <time>2026-05-17T07:39:11.000Z</time>
      </trkpt>
      <trkpt lat="49.221815" lon="-2.026559">
        <ele>9.017047</ele>
        <time>2026-05-17T07:39:13.000Z</time>
      </trkpt>
      <trkpt lat="49.222027" lon="-2.026135">
        <ele>8.8241</ele>
        <time>2026-05-17T07:39:17.000Z</time>
      </trkpt>
      <trkpt lat="49.222507" lon="-2.025104">
        <ele>8.361174</ele>
        <time>2026-05-17T07:39:26.000Z</time>
      </trkpt>
      <trkpt lat="49.222646" lon="-2.024881">
        <ele>8.407816</ele>
        <time>2026-05-17T07:39:28.000Z</time>
      </trkpt>
      <trkpt lat="49.222972" lon="-2.024576">
        <ele>9.306593</ele>
        <time>2026-05-17T07:39:32.000Z</time>
      </trkpt>
      <trkpt lat="49.223241" lon="-2.024332">
        <ele>10.051533</ele>
        <time>2026-05-17T07:39:35.000Z</time>
      </trkpt>
      <trkpt lat="49.223463" lon="-2.024058">
        <ele>10.690029</ele>
        <time>2026-05-17T07:39:38.000Z</time>
      </trkpt>
      <trkpt lat="49.223647" lon="-2.023727">
        <ele>11.353899</ele>
        <time>2026-05-17T07:39:41.000Z</time>
      </trkpt>
      <trkpt lat="49.223966" lon="-2.023341">
        <ele>12.291865</ele>
        <time>2026-05-17T07:39:46.000Z</time>
      </trkpt>
      <trkpt lat="49.224417" lon="-2.022993">
        <ele>11.698719</ele>
        <time>2026-05-17T07:39:52.000Z</time>
      </trkpt>
      <trkpt lat="49.224537" lon="-2.022913">
        <ele>11.462483</ele>
        <time>2026-05-17T07:39:53.000Z</time>
      </trkpt>
      <trkpt lat="49.224684" lon="-2.022748">
        <ele>11.158348</ele>
        <time>2026-05-17T07:39:55.000Z</time>
      </trkpt>
      <trkpt lat="49.224818" lon="-2.022514">
        <ele>10.80276</ele>
        <time>2026-05-17T07:39:57.000Z</time>
      </trkpt>
      <trkpt lat="49.224921" lon="-2.022257">
        <ele>10.455585</ele>
        <time>2026-05-17T07:39:59.000Z</time>
      </trkpt>
      <trkpt lat="49.224994" lon="-2.021906">
        <ele>10.05339</ele>
        <time>2026-05-17T07:40:02.000Z</time>
      </trkpt>
      <trkpt lat="49.224995" lon="-2.021695">
        <ele>9.80371</ele>
        <time>2026-05-17T07:40:04.000Z</time>
      </trkpt>
      <trkpt lat="49.22498" lon="-2.021316">
        <ele>9.392307</ele>
        <time>2026-05-17T07:40:07.000Z</time>
      </trkpt>
      <trkpt lat="49.22496" lon="-2.021068">
        <ele>9.20957463133</ele>
        <time>2026-05-17T07:40:09.000Z</time>
      </trkpt>
      <trkpt lat="49.224909" lon="-2.020809">
        <ele>9.01175402555</ele>
        <time>2026-05-17T07:40:11.000Z</time>
      </trkpt>
      <trkpt lat="49.224647" lon="-2.019903">
        <ele>8.28717678354</ele>
        <time>2026-05-17T07:40:18.000Z</time>
      </trkpt>
    </trkseg>
  </trk>
</gpx>

<!--
Performance optimized by W3 Total Cache. Learn more: https://www.boldgrid.com/w3-total-cache/?utm_source=w3tc&utm_medium=footer_comment&utm_campaign=free_plugin

Page Caching using Disk: Enhanced{w3tc_pagecache_reject_reason} 

Served from: www.aquabike.world @ 2026-05-10 17:31:14 by W3 Total Cache
-->